PWSweather.com
Personal Weather Stations
Station Observations
WISCHPK61
Green Bay Schmitt Park, Green Bay, WI 54311

Green Bay Schmitt ParkGreen Bay, WI 54311

Lat: 44.514277, Lon: -87.935067

Elevation: 735

Station Type: Acu Rite Pro Weather Center model 02032C

http://greenbayweathercam.com

High Low Average
Temperature 92.4°F33.6°C 64.8°F18.2°C 75.6°F24.2°C
Dew Point 91.1°F32.8°C 64.2°F17.9°C 73.3°F22.9°C
Winds Calm Calm Calm Calm Calm SCalm S
Wind Gusts -- -- --
Humidity 99% 53% 94%
Pressure 29.42 in996.3 mb 29.31 in992.6 mb -
Precipitation 0.00 in0.0 mm - -
Hour Temp Dew Point Humidity Winds Wind Gusts Pressure Precip Precip Rate Daily Precip Total
12:00 AM 68.0°F20.0°C 67.7°F19.8°C 99% Calm Calm -- 29.38 in994.9 mb - 0.00 in0.0 mm 0.00 in0.0 mm
01:00 AM 67.5°F19.7°C 67.2°F19.6°C 99% Calm Calm -- 29.38 in994.9 mb - 0.00 in0.0 mm 0.00 in0.0 mm
02:00 AM 66.8°F19.3°C 66.2°F19.0°C 98% Calm Calm -- 29.39 in995.3 mb - 0.00 in0.0 mm 0.00 in0.0 mm
03:00 AM 66.6°F19.2°C 66.0°F18.9°C 98% Calm Calm -- 29.38 in994.9 mb - 0.00 in0.0 mm 0.00 in0.0 mm
04:00 AM 66.6°F19.2°C 66.3°F19.1°C 99% Calm Calm -- 29.38 in994.9 mb - 0.00 in0.0 mm 0.00 in0.0 mm
05:00 AM 65.5°F18.6°C 65.2°F18.4°C 99% Calm Calm -- 29.38 in994.9 mb - 0.00 in0.0 mm 0.00 in0.0 mm
06:00 AM 64.8°F18.2°C 64.2°F17.9°C 98% Calm Calm -- 29.40 in995.6 mb - 0.00 in0.0 mm 0.00 in0.0 mm
07:00 AM 66.0°F18.9°C 65.7°F18.7°C 99% Calm Calm -- 29.40 in995.6 mb - 0.00 in0.0 mm 0.00 in0.0 mm
08:00 AM 66.6°F19.2°C 66.3°F19.1°C 99% Calm Calm -- 29.42 in996.3 mb - 0.00 in0.0 mm 0.00 in0.0 mm
09:00 AM 66.6°F19.2°C 66.3°F19.1°C 99% Calm Calm -- 29.42 in996.3 mb - 0.00 in0.0 mm 0.00 in0.0 mm
10:00 AM 74.5°F23.6°C 68.3°F20.2°C 81% Calm Calm -- 29.40 in995.6 mb - 0.00 in0.0 mm 0.00 in0.0 mm
11:00 AM 77.5°F25.3°C 75.6°F24.2°C 94% Calm Calm -- 29.41 in995.9 mb - 0.00 in0.0 mm 0.00 in0.0 mm
12:00 PM 80.2°F26.8°C 79.9°F26.6°C 99% Calm Calm -- 29.41 in995.9 mb - 0.00 in0.0 mm 0.00 in0.0 mm
01:00 PM 86.2°F30.1°C 85.9°F29.9°C 99% Calm Calm -- 29.40 in995.6 mb - 0.00 in0.0 mm 0.00 in0.0 mm
02:00 PM 88.9°F31.6°C 88.6°F31.4°C 99% Calm Calm -- 29.38 in994.9 mb - 0.00 in0.0 mm 0.00 in0.0 mm
03:00 PM 92.4°F33.6°C 81.2°F27.3°C 70% Calm Calm -- 29.38 in994.9 mb - 0.00 in0.0 mm 0.00 in0.0 mm
04:00 PM 91.5°F33.1°C 91.1°F32.8°C 99% Calm Calm -- 29.36 in994.2 mb - 0.00 in0.0 mm 0.00 in0.0 mm
05:00 PM 87.8°F31.0°C 87.4°F30.8°C 99% Calm Calm -- 29.36 in994.2 mb - 0.00 in0.0 mm 0.00 in0.0 mm
06:00 PM 84.1°F28.9°C 65.1°F18.4°C 53% Calm Calm -- 29.34 in993.6 mb - 0.00 in0.0 mm 0.00 in0.0 mm
07:00 PM 81.5°F27.5°C 81.2°F27.3°C 99% Calm Calm -- 29.34 in993.6 mb - 0.00 in0.0 mm 0.00 in0.0 mm
08:00 PM 78.6°F25.9°C 75.1°F23.9°C 89% Calm Calm -- 29.33 in993.2 mb - 0.00 in0.0 mm 0.00 in0.0 mm
09:00 PM 75.9°F24.4°C 75.6°F24.2°C 99% Calm Calm -- 29.32 in992.9 mb - 0.00 in0.0 mm 0.00 in0.0 mm
10:00 PM 73.9°F23.3°C 70.5°F21.4°C 89% Calm Calm -- 29.31 in992.6 mb - 0.00 in0.0 mm 0.00 in0.0 mm
11:00 PM 72.5°F22.5°C 70.0°F21.1°C 92% Calm Calm -- 29.33 in993.2 mb - 0.00 in0.0 mm 0.00 in0.0 mm